createdAt,value
2019-05-20T00:00:17.208Z,99217.73
2019-05-20T00:03:22.096Z,99217.63
2019-05-20T00:06:26.838Z,99218.11
2019-05-20T00:09:31.676Z,99224.61
2019-05-20T00:12:36.423Z,99232.38
2019-05-20T00:15:41.177Z,99225.24
2019-05-20T00:18:46.930Z,99227.16
2019-05-20T00:21:51.707Z,99231.52
2019-05-20T00:24:56.698Z,99233.22
2019-05-20T00:28:01.811Z,99232.97
2019-05-20T00:31:06.566Z,99231.16
2019-05-20T00:34:11.353Z,99225.09
2019-05-20T00:37:16.631Z,99227.76
2019-05-20T00:40:21.680Z,99225.09
2019-05-20T00:43:28.102Z,99225.23
2019-05-20T00:46:32.831Z,99233.23
2019-05-20T00:49:37.847Z,99226.68
2019-05-20T00:52:42.967Z,99224.13
2019-05-20T00:55:47.942Z,99220.38
2019-05-20T00:58:52.685Z,99220.11
2019-05-20T01:01:57.702Z,99223.14
2019-05-20T01:05:02.477Z,99222.17
2019-05-20T01:08:07.283Z,99216.70
2019-05-20T01:11:12.180Z,99213.94
2019-05-20T01:14:17.337Z,99206.27
2019-05-20T01:17:22.367Z,99208.92
2019-05-20T01:20:27.116Z,99203.84
2019-05-20T01:23:31.834Z,99191.23
2019-05-20T01:26:37.212Z,99194.39
2019-05-20T01:29:41.972Z,99199.77
2019-05-20T01:32:46.686Z,99200.38
2019-05-20T01:35:51.824Z,99194.61
2019-05-20T01:38:56.593Z,99197.02
2019-05-20T01:42:01.409Z,99198.22
2019-05-20T01:45:06.615Z,99195.03
2019-05-20T01:48:11.610Z,99180.91
2019-05-20T01:51:16.774Z,99198.60
2019-05-20T01:54:21.498Z,99194.52
2019-05-20T01:57:26.238Z,99179.83
2019-05-20T02:00:31.686Z,99201.59
2019-05-20T02:03:36.738Z,99203.39
2019-05-20T02:06:41.493Z,99202.30
2019-05-20T02:09:46.219Z,99204.38
2019-05-20T02:12:51.246Z,99198.58
2019-05-20T02:16:05.545Z,99193.64
2019-05-20T02:19:10.448Z,99192.17
2019-05-20T02:22:15.502Z,99200.25
2019-05-20T02:25:21.320Z,99199.51
2019-05-20T02:28:27.012Z,99194.06
2019-05-20T02:31:31.763Z,99196.19
2019-05-20T02:34:37.252Z,99195.18
2019-05-20T02:37:42.052Z,99195.18
2019-05-20T02:40:46.831Z,99197.91
2019-05-20T02:43:51.663Z,99186.66
2019-05-20T02:46:57.155Z,99179.83
2019-05-20T02:50:01.957Z,99185.89
2019-05-20T02:53:06.699Z,99188.13
2019-05-20T02:56:11.708Z,99188.17
2019-05-20T02:59:16.772Z,99192.36
2019-05-20T03:02:22.119Z,99194.80
2019-05-20T03:05:26.988Z,99188.09
2019-05-20T03:08:31.713Z,99185.07
2019-05-20T03:11:36.563Z,99171.75
2019-05-20T03:14:44.268Z,99194.30
2019-05-20T03:17:49.019Z,99181.57
2019-05-20T03:20:55.287Z,99196.48
2019-05-20T03:24:01.501Z,99185.63
2019-05-20T03:27:06.181Z,99201.50
2019-05-20T03:30:11.192Z,99191.31
2019-05-20T03:33:15.944Z,99198.48
2019-05-20T03:36:20.699Z,99192.70
2019-05-20T03:39:25.430Z,99190.19
2019-05-20T03:42:30.611Z,99199.71
2019-05-20T03:45:35.391Z,99199.71
2019-05-20T03:48:40.101Z,99193.55
2019-05-20T03:51:44.855Z,99192.84
2019-05-20T03:54:49.890Z,99201.43
2019-05-20T03:57:54.621Z,99198.67
2019-05-20T04:00:59.472Z,99200.80
2019-05-20T04:04:04.299Z,99200.80
2019-05-20T04:07:09.114Z,99205.97
2019-05-20T04:10:14.289Z,99209.23
2019-05-20T04:13:19.351Z,99206.25
2019-05-20T04:16:24.421Z,99214.55
2019-05-20T04:19:29.907Z,99212.22
2019-05-20T04:22:34.646Z,99216.68
2019-05-20T04:25:39.366Z,99218.05
2019-05-20T04:28:44.115Z,99215.68
2019-05-20T04:31:49.949Z,99221.03
2019-05-20T04:34:54.678Z,99221.98
2019-05-20T04:37:59.741Z,99221.98
2019-05-20T04:41:04.768Z,99227.67
2019-05-20T04:44:09.600Z,99227.67
2019-05-20T04:47:14.386Z,99223.31
2019-05-20T04:50:19.296Z,99223.31
2019-05-20T04:53:24.343Z,99227.58
2019-05-20T04:56:29.618Z,99223.41
2019-05-20T04:59:34.787Z,99223.41
2019-05-20T05:02:43.439Z,99222.13
2019-05-20T05:05:46.740Z,99222.13
2019-05-20T05:08:51.659Z,99225.78
2019-05-20T05:11:57.544Z,99233.59
2019-05-20T05:15:05.815Z,99228.52
2019-05-20T05:18:09.895Z,99223.08
2019-05-20T05:21:14.847Z,99224.36
2019-05-20T05:24:19.772Z,99224.27
2019-05-20T05:27:24.710Z,99221.75
2019-05-20T05:30:29.717Z,99227.47
2019-05-20T05:33:34.559Z,99225.70
2019-05-20T05:36:39.702Z,99225.09
2019-05-20T05:39:44.913Z,99232.34
2019-05-20T05:42:49.968Z,99242.50
2019-05-20T05:45:54.744Z,99239.95
2019-05-20T05:49:00.264Z,99249.94
2019-05-20T05:52:05.174Z,99256.18
2019-05-20T05:55:10.122Z,99256.18
2019-05-20T05:58:16.665Z,99252.59
2019-05-20T06:01:21.628Z,99260.23
2019-05-20T06:04:26.413Z,99262.45
2019-05-20T06:07:31.269Z,99276.53
2019-05-20T06:10:36.217Z,99279.86
2019-05-20T06:13:41.150Z,99286.16
2019-05-20T06:16:46.255Z,99290.33
2019-05-20T06:19:51.361Z,99282.22
2019-05-20T06:22:56.563Z,99285.50
2019-05-20T06:26:01.357Z,99289.95
2019-05-20T06:29:06.218Z,99281.09
2019-05-20T06:32:10.987Z,99280.05
2019-05-20T06:35:17.329Z,99285.08
2019-05-20T06:38:40.399Z,99284.59
2019-05-20T06:41:45.211Z,99277.86
2019-05-20T06:44:53.157Z,99283.64
2019-05-20T06:47:56.944Z,99282.62
2019-05-20T06:51:01.741Z,99284.47
2019-05-20T06:54:07.636Z,99283.89
2019-05-20T06:57:12.842Z,99287.44
2019-05-20T07:00:31.704Z,99291.87
2019-05-20T07:03:36.796Z,99286.25
2019-05-20T07:06:46.426Z,99289.86
2019-05-20T07:09:48.189Z,99287.84
2019-05-20T07:12:52.968Z,99288.05
2019-05-20T07:15:58.020Z,99285.97
2019-05-20T07:19:02.783Z,99295.28
2019-05-20T07:22:07.565Z,99296.27
2019-05-20T07:25:12.818Z,99298.52
2019-05-20T07:28:17.684Z,99291.19
2019-05-20T07:31:22.433Z,99295.83
2019-05-20T07:34:27.786Z,99297.52
2019-05-20T07:37:32.911Z,99293.77
2019-05-20T07:40:37.766Z,99296.12
2019-05-20T07:43:42.902Z,99295.20
2019-05-20T07:46:48.147Z,99286.58
2019-05-20T07:49:53.079Z,99288.62
2019-05-20T07:53:00.612Z,99287.74
2019-05-20T07:56:09.058Z,99280.55
2019-05-20T07:59:17.194Z,99287.17
2019-05-20T08:02:22.120Z,99286.70
2019-05-20T08:05:26.892Z,99289.98
2019-05-20T08:08:32.597Z,99290.51
2019-05-20T08:11:37.541Z,99291.29
2019-05-20T08:14:42.550Z,99295.19
2019-05-20T08:17:47.723Z,99287.72
2019-05-20T08:20:52.724Z,99287.72
2019-05-20T08:23:57.568Z,99300.33
2019-05-20T08:27:02.432Z,99298.45
2019-05-20T08:30:08.252Z,99297.13
2019-05-20T08:33:13.078Z,99291.08
2019-05-20T08:36:18.221Z,99252.47
2019-05-20T08:39:22.961Z,99297.38
2019-05-20T08:42:27.762Z,99301.28
2019-05-20T08:45:32.580Z,99299.33
2019-05-20T08:48:37.662Z,99299.08
2019-05-20T08:51:42.427Z,99303.56
2019-05-20T08:54:47.543Z,99307.50
2019-05-20T08:57:52.284Z,99301.84
2019-05-20T09:00:57.393Z,99303.78
2019-05-20T09:04:02.382Z,99306.30
2019-05-20T09:07:07.223Z,99305.97
2019-05-20T09:10:12.828Z,99305.86
2019-05-20T09:13:17.967Z,99312.14
2019-05-20T09:16:22.703Z,99313.70
2019-05-20T09:19:27.471Z,99304.50
2019-05-20T09:22:32.314Z,99306.66
2019-05-20T09:25:37.064Z,99309.70
2019-05-20T09:28:41.811Z,99311.66
2019-05-20T09:31:47.679Z,99313.82
2019-05-20T09:34:53.475Z,99324.95
2019-05-20T09:37:58.243Z,99319.17
2019-05-20T09:41:03.245Z,99319.98
2019-05-20T09:44:08.270Z,99318.88
2019-05-20T09:47:13.279Z,99321.44
2019-05-20T09:50:19.084Z,99322.37
2019-05-20T09:53:24.181Z,99323.94
2019-05-20T09:56:30.268Z,99329.76
2019-05-20T09:59:43.205Z,99319.82
2019-05-20T10:02:41.663Z,99325.30
2019-05-20T10:05:46.466Z,99324.77
2019-05-20T10:08:51.680Z,99329.36
2019-05-20T10:11:56.513Z,99322.16
2019-05-20T10:15:01.488Z,99328.11
2019-05-20T10:18:06.458Z,99325.14
2019-05-20T10:21:11.199Z,99327.39
2019-05-20T10:24:15.948Z,99334.15
2019-05-20T10:27:21.348Z,99317.92
2019-05-20T10:30:26.488Z,99332.00
2019-05-20T10:33:36.933Z,99333.44
2019-05-20T10:36:41.137Z,99342.95
2019-05-20T10:39:46.380Z,99339.30
2019-05-20T10:42:51.231Z,99340.78
2019-05-20T10:45:56.385Z,99344.86
2019-05-20T10:49:01.637Z,99338.87
2019-05-20T10:52:06.459Z,99343.97
2019-05-20T10:55:13.127Z,99343.20
2019-05-20T10:58:17.894Z,99349.63
2019-05-20T11:01:23.042Z,99350.98
2019-05-20T11:04:27.835Z,99359.47
2019-05-20T11:07:32.976Z,99354.38
2019-05-20T11:10:37.727Z,99353.91
2019-05-20T11:13:44.410Z,99358.52
2019-05-20T11:16:49.463Z,99361.42
2019-05-20T11:19:54.516Z,99366.02
2019-05-20T11:23:01.190Z,99367.02
2019-05-20T11:26:05.734Z,99373.42
2019-05-20T11:29:10.771Z,99365.70
2019-05-20T11:32:15.563Z,99368.37
2019-05-20T11:35:20.345Z,99375.41
2019-05-20T11:38:25.396Z,99378.70
2019-05-20T11:41:52.148Z,99374.22
2019-05-20T11:44:37.453Z,99378.70
2019-05-20T11:47:43.724Z,99372.12
2019-05-20T11:50:48.788Z,99377.08
2019-05-20T11:53:53.938Z,99375.63
2019-05-20T11:56:58.699Z,99375.27
2019-05-20T12:00:04.117Z,99372.05
2019-05-20T12:03:08.877Z,99386.70
2019-05-20T12:06:13.658Z,99373.12
2019-05-20T12:09:18.695Z,99371.38
2019-05-20T12:12:23.440Z,99368.89
2019-05-20T12:15:28.206Z,99371.76
2019-05-20T12:18:33.284Z,99371.76
2019-05-20T12:21:38.666Z,99373.19
2019-05-20T12:24:43.452Z,99372.81
2019-05-20T12:27:48.942Z,99376.90
2019-05-20T12:30:53.975Z,99368.63
2019-05-20T12:33:58.989Z,99364.62
2019-05-20T12:37:03.773Z,99367.98
2019-05-20T12:40:09.195Z,99366.95
2019-05-20T12:43:13.979Z,99363.61
2019-05-20T12:46:19.120Z,99363.37
2019-05-20T12:49:24.229Z,99366.27
2019-05-20T12:52:29.147Z,99357.83
2019-05-20T12:55:34.005Z,99357.83
2019-05-20T12:58:39.114Z,99354.61
2019-05-20T13:01:43.898Z,99354.52
2019-05-20T13:04:49.657Z,99350.61
2019-05-20T13:07:54.720Z,99350.02
2019-05-20T13:10:59.784Z,99353.34
2019-05-20T13:14:04.824Z,99349.45
2019-05-20T13:17:09.651Z,99349.45
2019-05-20T13:20:14.885Z,99352.28
2019-05-20T13:23:19.626Z,99350.67
2019-05-20T13:26:24.795Z,99346.23
2019-05-20T13:29:29.648Z,99345.99
2019-05-20T13:32:34.452Z,99343.66
2019-05-20T13:35:39.633Z,99345.63
2019-05-20T13:38:44.506Z,99333.92
2019-05-20T13:41:49.691Z,99342.95
2019-05-20T13:44:54.573Z,99334.83
2019-05-20T13:47:59.339Z,99337.04
2019-05-20T13:51:04.280Z,99335.25
2019-05-20T13:54:09.260Z,99330.28
2019-05-20T13:57:14.096Z,99342.18
2019-05-20T14:00:20.017Z,99335.58
2019-05-20T14:03:24.751Z,99334.81
2019-05-20T14:06:29.856Z,99340.05
2019-05-20T14:09:34.570Z,99346.72
2019-05-20T14:12:39.645Z,99340.38
2019-05-20T14:15:44.379Z,99339.42
2019-05-20T14:18:49.477Z,99332.00
2019-05-20T14:21:54.625Z,99328.95
2019-05-20T14:25:00.233Z,99331.63
2019-05-20T14:28:05.177Z,99344.84
2019-05-20T14:31:10.400Z,99336.80
2019-05-20T14:34:15.563Z,99343.25
2019-05-20T14:37:20.608Z,99348.27
2019-05-20T14:40:25.702Z,99346.77
2019-05-20T14:43:30.586Z,99359.55
2019-05-20T14:46:35.612Z,99357.25
2019-05-20T14:49:40.383Z,99357.89
2019-05-20T14:52:45.121Z,99360.77
2019-05-20T14:55:49.902Z,99362.52
2019-05-20T14:58:55.846Z,99358.84
2019-05-20T15:02:01.999Z,99368.95
2019-05-20T15:05:07.555Z,99366.06
2019-05-20T15:08:13.038Z,99372.73
2019-05-20T15:11:17.901Z,99374.45
2019-05-20T15:14:22.675Z,99370.75
2019-05-20T15:17:28.908Z,99370.75
2019-05-20T15:20:33.750Z,99377.08
2019-05-20T15:23:38.479Z,99377.08
2019-05-20T15:26:43.682Z,99378.20
2019-05-20T15:29:49.893Z,99378.20
2019-05-20T15:32:55.143Z,99395.62
2019-05-20T15:36:00.293Z,99395.62
2019-05-20T15:39:06.698Z,99388.48
2019-05-20T15:42:11.532Z,99399.21
2019-05-20T15:45:18.281Z,99403.29
2019-05-20T15:48:23.419Z,99407.87
2019-05-20T15:51:28.482Z,99405.36
2019-05-20T15:54:33.546Z,99399.61
2019-05-20T15:57:38.300Z,99411.09
2019-05-20T16:00:43.073Z,99400.00
2019-05-20T16:03:51.371Z,99402.78
2019-05-20T16:06:54.473Z,99397.56
2019-05-20T16:09:59.222Z,99399.13
2019-05-20T16:13:04.092Z,99392.97
2019-05-20T16:16:12.824Z,99400.58
2019-05-20T16:19:15.807Z,99400.78
2019-05-20T16:22:20.735Z,99398.97
2019-05-20T16:25:25.526Z,99399.33
2019-05-20T16:28:30.627Z,99401.41
2019-05-20T16:31:35.524Z,99405.18
2019-05-20T16:34:40.681Z,99405.18
2019-05-20T16:37:45.600Z,99412.41
2019-05-20T16:40:50.446Z,99410.03
2019-05-20T16:43:55.863Z,99412.58
2019-05-20T16:47:01.302Z,99412.58
2019-05-20T16:50:08.300Z,99417.52
2019-05-20T16:53:13.523Z,99417.52
2019-05-20T16:56:18.649Z,99411.59
2019-05-20T16:59:23.953Z,99414.55
2019-05-20T17:02:31.625Z,99414.55
2019-05-20T17:05:36.702Z,99415.55
2019-05-20T17:08:41.919Z,99414.02
2019-05-20T17:11:46.799Z,99417.50
2019-05-20T17:14:52.030Z,99414.05
2019-05-20T17:17:56.827Z,99414.05
2019-05-20T17:21:01.973Z,99420.69
2019-05-20T17:24:06.906Z,99417.64
2019-05-20T17:27:12.274Z,99415.66
2019-05-20T17:30:17.544Z,99415.66
2019-05-20T17:33:22.774Z,99430.97
2019-05-20T17:36:27.573Z,99428.41
2019-05-20T17:39:32.550Z,99433.66
2019-05-20T17:42:37.872Z,99436.42
2019-05-20T17:45:43.095Z,99444.91
2019-05-20T17:48:48.007Z,99442.49
2019-05-20T17:51:52.826Z,99448.45
2019-05-20T17:54:57.609Z,99455.00
2019-05-20T17:58:02.521Z,99446.69
2019-05-20T18:01:15.325Z,99459.00
2019-05-20T18:04:14.452Z,99455.48
2019-05-20T18:07:19.357Z,99449.17
2019-05-20T18:10:25.404Z,99448.45
2019-05-20T18:13:31.600Z,99452.83
2019-05-20T18:16:36.729Z,99457.90
2019-05-20T18:19:42.580Z,99460.66
2019-05-20T18:22:47.796Z,99465.42
2019-05-20T18:25:52.886Z,99465.42
2019-05-20T18:28:58.466Z,99466.38
2019-05-20T18:32:03.283Z,99467.09
2019-05-20T18:35:08.690Z,99468.61
2019-05-20T18:38:14.081Z,99458.94
2019-05-20T18:41:20.319Z,99462.68
2019-05-20T18:44:25.508Z,99467.34
2019-05-20T18:47:30.595Z,99465.81
2019-05-20T18:50:35.382Z,99458.94
2019-05-20T18:53:40.177Z,99467.23
2019-05-20T18:56:45.367Z,99475.06
2019-05-20T18:59:50.173Z,99473.26
2019-05-20T19:02:55.032Z,99478.20
2019-05-20T19:06:00.123Z,99468.00
2019-05-20T19:09:06.443Z,99475.20
2019-05-20T19:12:11.978Z,99481.23
2019-05-20T19:15:17.663Z,99489.93
2019-05-20T19:18:22.479Z,99481.33
2019-05-20T19:21:27.270Z,99486.66
2019-05-20T19:24:32.563Z,99485.52
2019-05-20T19:27:38.792Z,99494.91
2019-05-20T19:30:43.834Z,99494.91
2019-05-20T19:33:48.935Z,99499.63
2019-05-20T19:36:54.068Z,99498.67
2019-05-20T19:39:58.913Z,99506.92
2019-05-20T19:43:03.699Z,99512.23
2019-05-20T19:46:08.966Z,99522.12
2019-05-20T19:49:13.991Z,99527.74
2019-05-20T19:52:18.929Z,99529.56
2019-05-20T19:55:23.994Z,99533.98
2019-05-20T19:58:28.996Z,99537.23
2019-05-20T20:01:34.273Z,99537.59
2019-05-20T20:04:39.733Z,99527.44
2019-05-20T20:07:46.031Z,99534.54
2019-05-20T20:10:50.980Z,99530.95
2019-05-20T20:13:55.920Z,99536.64
2019-05-20T20:17:00.744Z,99539.20
2019-05-20T20:20:05.902Z,99546.40
2019-05-20T20:23:10.657Z,99546.14
2019-05-20T20:26:15.755Z,99549.19
2019-05-20T20:29:20.503Z,99544.27
2019-05-20T20:32:37.268Z,99553.59
2019-05-20T20:35:38.115Z,99546.53
2019-05-20T20:38:39.172Z,99551.92
2019-05-20T20:41:44.419Z,99550.77
2019-05-20T20:44:49.541Z,99557.05
2019-05-20T20:47:54.280Z,99553.50
2019-05-20T20:50:59.047Z,99548.95
2019-05-20T20:54:04.373Z,99552.10
2019-05-20T20:57:09.339Z,99551.02
2019-05-20T21:00:14.812Z,99554.99
2019-05-20T21:03:22.432Z,99562.73
2019-05-20T21:06:27.489Z,99564.19
2019-05-20T21:09:32.615Z,99558.55
2019-05-20T21:12:37.504Z,99555.43
2019-05-20T21:15:42.555Z,99569.55
2019-05-20T21:18:47.359Z,99574.81
2019-05-20T21:21:52.350Z,99569.07
2019-05-20T21:24:57.185Z,99566.67
2019-05-20T21:28:01.954Z,99572.20
2019-05-20T21:31:06.940Z,99571.43
2019-05-20T21:34:11.951Z,99573.52
2019-05-20T21:37:16.741Z,99577.77
2019-05-20T21:40:21.579Z,99574.55
2019-05-20T21:43:26.758Z,99572.16
2019-05-20T21:46:31.911Z,99578.61
2019-05-20T21:49:36.673Z,99577.38
2019-05-20T21:52:42.031Z,99582.21
2019-05-20T21:55:47.379Z,99579.47
2019-05-20T21:58:52.211Z,99582.13
2019-05-20T22:01:57.279Z,99579.55
2019-05-20T22:05:02.733Z,99587.05
2019-05-20T22:08:09.399Z,99576.52
2019-05-20T22:11:14.271Z,99581.53
2019-05-20T22:14:20.172Z,99580.59
2019-05-20T22:17:25.343Z,99583.75
2019-05-20T22:20:30.700Z,99584.77
2019-05-20T22:24:00.868Z,99584.17
2019-05-20T22:27:06.601Z,99581.05
2019-05-20T22:30:11.869Z,99580.95
2019-05-20T22:33:16.624Z,99570.73
2019-05-20T22:36:21.581Z,99574.55
2019-05-20T22:39:27.392Z,99568.56
2019-05-20T22:42:32.158Z,99573.39
2019-05-20T22:45:36.987Z,99567.45
2019-05-20T22:48:41.866Z,99571.42
2019-05-20T22:51:46.606Z,99574.25
2019-05-20T22:54:51.457Z,99582.30
2019-05-20T22:57:56.266Z,99578.88
2019-05-20T23:01:01.187Z,99576.91
2019-05-20T23:04:05.918Z,99577.29
2019-05-20T23:07:10.759Z,99582.68
2019-05-20T23:10:16.251Z,99574.63
2019-05-20T23:13:21.670Z,99575.02
2019-05-20T23:16:26.430Z,99578.78
2019-05-20T23:19:31.243Z,99568.39
2019-05-20T23:22:36.340Z,99583.75
2019-05-20T23:25:41.144Z,99581.48
2019-05-20T23:28:45.881Z,99577.50
2019-05-20T23:31:50.654Z,99579.86
2019-05-20T23:34:55.716Z,99585.75
2019-05-20T23:38:00.481Z,99588.02
2019-05-20T23:41:05.316Z,99579.29
2019-05-20T23:44:10.099Z,99581.86
2019-05-20T23:47:15.137Z,99580.12
2019-05-20T23:50:20.086Z,99576.91
2019-05-20T23:53:24.855Z,99576.14
2019-05-20T23:56:29.611Z,99569.89
2019-05-20T23:59:34.373Z,99569.89
